sensor_id;sensor_type;location;lat;lon;timestamp;P1;durP1;ratioP1;P2;durP2;ratioP2
19183;SDS011;9724;51.194;6.856;2022-12-18T00:02:12;17.23;;;7.67;;
19183;SDS011;9724;51.194;6.856;2022-12-18T00:04:39;14.37;;;7.17;;
19183;SDS011;9724;51.194;6.856;2022-12-18T00:07:05;13.57;;;7.03;;
19183;SDS011;9724;51.194;6.856;2022-12-18T00:09:31;18.27;;;8.00;;
19183;SDS011;9724;51.194;6.856;2022-12-18T00:12:05;14.93;;;6.63;;
19183;SDS011;9724;51.194;6.856;2022-12-18T00:14:44;14.13;;;7.53;;
19183;SDS011;9724;51.194;6.856;2022-12-18T00:17:11;15.20;;;7.53;;
19183;SDS011;9724;51.194;6.856;2022-12-18T00:19:37;14.73;;;7.20;;
19183;SDS011;9724;51.194;6.856;2022-12-18T00:22:03;16.53;;;7.73;;
19183;SDS011;9724;51.194;6.856;2022-12-18T00:24:30;15.53;;;7.10;;
19183;SDS011;9724;51.194;6.856;2022-12-18T00:26:56;15.47;;;7.60;;
19183;SDS011;9724;51.194;6.856;2022-12-18T00:29:22;14.50;;;7.03;;
19183;SDS011;9724;51.194;6.856;2022-12-18T00:31:50;18.60;;;7.90;;
19183;SDS011;9724;51.194;6.856;2022-12-18T00:34:16;18.80;;;7.60;;
19183;SDS011;9724;51.194;6.856;2022-12-18T00:36:42;16.17;;;8.07;;
19183;SDS011;9724;51.194;6.856;2022-12-18T00:39:10;17.00;;;7.73;;
19183;SDS011;9724;51.194;6.856;2022-12-18T00:41:37;17.20;;;7.23;;
19183;SDS011;9724;51.194;6.856;2022-12-18T00:44:21;15.40;;;6.53;;
19183;SDS011;9724;51.194;6.856;2022-12-18T00:46:48;15.27;;;7.20;;
19183;SDS011;9724;51.194;6.856;2022-12-18T00:49:15;15.67;;;7.30;;
19183;SDS011;9724;51.194;6.856;2022-12-18T00:51:42;14.93;;;7.10;;
19183;SDS011;9724;51.194;6.856;2022-12-18T00:54:09;13.10;;;7.07;;
19183;SDS011;9724;51.194;6.856;2022-12-18T00:56:36;18.07;;;7.97;;
19183;SDS011;9724;51.194;6.856;2022-12-18T00:59:14;18.83;;;7.20;;
19183;SDS011;9724;51.194;6.856;2022-12-18T01:01:40;16.83;;;7.57;;
19183;SDS011;9724;51.194;6.856;2022-12-18T01:04:06;12.53;;;6.97;;
19183;SDS011;9724;51.194;6.856;2022-12-18T01:06:33;14.93;;;6.80;;
19183;SDS011;9724;51.194;6.856;2022-12-18T01:08:59;19.77;;;8.70;;
19183;SDS011;9724;51.194;6.856;2022-12-18T01:11:26;17.77;;;7.87;;
19183;SDS011;9724;51.194;6.856;2022-12-18T01:13:52;15.90;;;7.60;;
19183;SDS011;9724;51.194;6.856;2022-12-18T01:16:19;19.00;;;7.27;;
19183;SDS011;9724;51.194;6.856;2022-12-18T01:18:45;14.07;;;7.17;;
19183;SDS011;9724;51.194;6.856;2022-12-18T01:21:12;18.97;;;7.40;;
19183;SDS011;9724;51.194;6.856;2022-12-18T01:23:40;14.97;;;7.27;;
19183;SDS011;9724;51.194;6.856;2022-12-18T01:26:11;16.30;;;7.53;;
19183;SDS011;9724;51.194;6.856;2022-12-18T01:28:39;14.40;;;6.93;;
19183;SDS011;9724;51.194;6.856;2022-12-18T01:31:10;13.20;;;6.30;;
19183;SDS011;9724;51.194;6.856;2022-12-18T01:33:43;15.13;;;7.40;;
19183;SDS011;9724;51.194;6.856;2022-12-18T01:36:14;17.27;;;6.83;;
19183;SDS011;9724;51.194;6.856;2022-12-18T01:38:42;16.27;;;7.60;;
19183;SDS011;9724;51.194;6.856;2022-12-18T01:41:08;14.00;;;6.73;;
19183;SDS011;9724;51.194;6.856;2022-12-18T01:43:48;15.13;;;6.93;;
19183;SDS011;9724;51.194;6.856;2022-12-18T01:46:17;16.27;;;7.63;;
19183;SDS011;9724;51.194;6.856;2022-12-18T01:48:44;14.37;;;7.03;;
19183;SDS011;9724;51.194;6.856;2022-12-18T01:51:10;14.70;;;7.10;;
19183;SDS011;9724;51.194;6.856;2022-12-18T01:53:38;17.33;;;7.80;;
19183;SDS011;9724;51.194;6.856;2022-12-18T01:56:07;15.53;;;7.67;;
19183;SDS011;9724;51.194;6.856;2022-12-18T01:58:35;16.33;;;7.43;;
19183;SDS011;9724;51.194;6.856;2022-12-18T02:01:11;15.03;;;7.50;;
19183;SDS011;9724;51.194;6.856;2022-12-18T02:03:40;14.10;;;7.37;;
19183;SDS011;9724;51.194;6.856;2022-12-18T02:06:08;18.10;;;7.93;;
19183;SDS011;9724;51.194;6.856;2022-12-18T02:08:39;15.77;;;7.50;;
19183;SDS011;9724;51.194;6.856;2022-12-18T02:11:10;14.60;;;7.47;;
19183;SDS011;9724;51.194;6.856;2022-12-18T02:13:41;20.33;;;7.97;;
19183;SDS011;9724;51.194;6.856;2022-12-18T02:16:12;15.17;;;7.83;;
19183;SDS011;9724;51.194;6.856;2022-12-18T02:18:44;19.33;;;8.07;;
19183;SDS011;9724;51.194;6.856;2022-12-18T02:21:15;14.30;;;6.93;;
19183;SDS011;9724;51.194;6.856;2022-12-18T02:23:49;15.53;;;6.97;;
19183;SDS011;9724;51.194;6.856;2022-12-18T02:26:23;11.47;;;6.30;;
19183;SDS011;9724;51.194;6.856;2022-12-18T02:28:53;14.70;;;6.87;;
19183;SDS011;9724;51.194;6.856;2022-12-18T02:31:24;17.03;;;7.17;;
19183;SDS011;9724;51.194;6.856;2022-12-18T02:33:59;12.63;;;6.50;;
19183;SDS011;9724;51.194;6.856;2022-12-18T02:36:26;13.93;;;6.70;;
19183;SDS011;9724;51.194;6.856;2022-12-18T02:38:53;19.20;;;7.53;;
19183;SDS011;9724;51.194;6.856;2022-12-18T02:41:24;11.90;;;6.37;;
19183;SDS011;9724;51.194;6.856;2022-12-18T02:43:53;13.80;;;7.53;;
19183;SDS011;9724;51.194;6.856;2022-12-18T02:46:27;13.33;;;7.07;;
19183;SDS011;9724;51.194;6.856;2022-12-18T02:48:57;15.33;;;7.20;;
19183;SDS011;9724;51.194;6.856;2022-12-18T02:51:29;17.60;;;7.73;;
19183;SDS011;9724;51.194;6.856;2022-12-18T02:53:58;14.23;;;7.00;;
19183;SDS011;9724;51.194;6.856;2022-12-18T02:56:29;15.37;;;6.80;;
19183;SDS011;9724;51.194;6.856;2022-12-18T02:58:59;16.30;;;6.67;;
19183;SDS011;9724;51.194;6.856;2022-12-18T03:01:30;14.17;;;6.97;;
19183;SDS011;9724;51.194;6.856;2022-12-18T03:04:01;12.47;;;6.87;;
19183;SDS011;9724;51.194;6.856;2022-12-18T03:06:30;14.90;;;7.70;;
19183;SDS011;9724;51.194;6.856;2022-12-18T03:08:58;15.30;;;7.13;;
19183;SDS011;9724;51.194;6.856;2022-12-18T03:11:26;16.37;;;7.57;;
19183;SDS011;9724;51.194;6.856;2022-12-18T03:14:14;13.13;;;6.80;;
19183;SDS011;9724;51.194;6.856;2022-12-18T03:16:42;16.80;;;7.53;;
19183;SDS011;9724;51.194;6.856;2022-12-18T03:19:10;12.53;;;6.90;;
19183;SDS011;9724;51.194;6.856;2022-12-18T03:21:40;15.97;;;7.20;;
19183;SDS011;9724;51.194;6.856;2022-12-18T03:24:09;15.50;;;6.50;;
19183;SDS011;9724;51.194;6.856;2022-12-18T03:26:36;14.93;;;7.30;;
19183;SDS011;9724;51.194;6.856;2022-12-18T03:29:05;14.40;;;7.07;;
19183;SDS011;9724;51.194;6.856;2022-12-18T03:31:36;13.10;;;6.87;;
19183;SDS011;9724;51.194;6.856;2022-12-18T03:34:04;20.13;;;7.50;;
19183;SDS011;9724;51.194;6.856;2022-12-18T03:36:32;15.53;;;7.43;;
19183;SDS011;9724;51.194;6.856;2022-12-18T03:38:58;14.33;;;6.93;;
19183;SDS011;9724;51.194;6.856;2022-12-18T03:41:25;15.27;;;6.63;;
19183;SDS011;9724;51.194;6.856;2022-12-18T03:43:57;12.47;;;6.93;;
19183;SDS011;9724;51.194;6.856;2022-12-18T03:46:29;14.40;;;7.00;;
19183;SDS011;9724;51.194;6.856;2022-12-18T03:49:00;12.50;;;6.93;;
19183;SDS011;9724;51.194;6.856;2022-12-18T03:51:30;18.27;;;7.60;;
19183;SDS011;9724;51.194;6.856;2022-12-18T03:54:03;12.47;;;6.47;;
19183;SDS011;9724;51.194;6.856;2022-12-18T03:56:31;12.70;;;6.43;;
19183;SDS011;9724;51.194;6.856;2022-12-18T03:59:00;14.03;;;7.07;;
19183;SDS011;9724;51.194;6.856;2022-12-18T04:01:29;15.90;;;6.93;;
19183;SDS011;9724;51.194;6.856;2022-12-18T04:03:57;13.37;;;6.93;;
19183;SDS011;9724;51.194;6.856;2022-12-18T04:06:26;17.47;;;7.30;;
19183;SDS011;9724;51.194;6.856;2022-12-18T04:08:53;13.40;;;6.50;;
19183;SDS011;9724;51.194;6.856;2022-12-18T04:11:20;14.10;;;7.03;;
19183;SDS011;9724;51.194;6.856;2022-12-18T04:13:46;14.53;;;6.67;;
19183;SDS011;9724;51.194;6.856;2022-12-18T04:16:13;16.70;;;7.20;;
19183;SDS011;9724;51.194;6.856;2022-12-18T04:18:39;15.37;;;7.60;;
19183;SDS011;9724;51.194;6.856;2022-12-18T04:21:05;15.60;;;6.50;;
19183;SDS011;9724;51.194;6.856;2022-12-18T04:23:32;16.57;;;7.30;;
19183;SDS011;9724;51.194;6.856;2022-12-18T04:25:58;13.70;;;6.97;;
19183;SDS011;9724;51.194;6.856;2022-12-18T04:28:24;15.13;;;6.47;;
19183;SDS011;9724;51.194;6.856;2022-12-18T04:30:50;14.00;;;7.23;;
19183;SDS011;9724;51.194;6.856;2022-12-18T04:33:17;13.30;;;6.77;;
19183;SDS011;9724;51.194;6.856;2022-12-18T04:35:44;13.43;;;6.90;;
19183;SDS011;9724;51.194;6.856;2022-12-18T04:38:10;12.73;;;6.80;;
19183;SDS011;9724;51.194;6.856;2022-12-18T04:40:37;16.37;;;6.97;;
19183;SDS011;9724;51.194;6.856;2022-12-18T04:43:03;17.27;;;6.80;;
19183;SDS011;9724;51.194;6.856;2022-12-18T04:45:30;16.47;;;7.03;;
19183;SDS011;9724;51.194;6.856;2022-12-18T04:47:56;15.17;;;6.90;;
19183;SDS011;9724;51.194;6.856;2022-12-18T04:50:23;12.83;;;6.60;;
19183;SDS011;9724;51.194;6.856;2022-12-18T04:52:50;17.03;;;7.20;;
19183;SDS011;9724;51.194;6.856;2022-12-18T04:55:16;12.60;;;7.20;;
19183;SDS011;9724;51.194;6.856;2022-12-18T04:57:42;12.10;;;6.57;;
19183;SDS011;9724;51.194;6.856;2022-12-18T05:00:09;13.23;;;6.70;;
19183;SDS011;9724;51.194;6.856;2022-12-18T05:02:35;13.33;;;7.33;;
19183;SDS011;9724;51.194;6.856;2022-12-18T05:05:02;15.87;;;7.03;;
19183;SDS011;9724;51.194;6.856;2022-12-18T05:07:29;14.47;;;7.53;;
19183;SDS011;9724;51.194;6.856;2022-12-18T05:09:55;14.47;;;7.07;;
19183;SDS011;9724;51.194;6.856;2022-12-18T05:12:22;14.43;;;6.70;;
19183;SDS011;9724;51.194;6.856;2022-12-18T05:14:48;17.83;;;6.93;;
19183;SDS011;9724;51.194;6.856;2022-12-18T05:17:14;16.53;;;7.00;;
19183;SDS011;9724;51.194;6.856;2022-12-18T05:19:41;11.50;;;6.63;;
19183;SDS011;9724;51.194;6.856;2022-12-18T05:22:07;18.00;;;7.50;;
19183;SDS011;9724;51.194;6.856;2022-12-18T05:24:34;16.20;;;7.33;;
19183;SDS011;9724;51.194;6.856;2022-12-18T05:27:00;14.63;;;7.00;;
19183;SDS011;9724;51.194;6.856;2022-12-18T05:29:27;13.67;;;7.57;;
19183;SDS011;9724;51.194;6.856;2022-12-18T05:31:53;12.87;;;7.40;;
19183;SDS011;9724;51.194;6.856;2022-12-18T05:34:20;13.60;;;6.93;;
19183;SDS011;9724;51.194;6.856;2022-12-18T05:36:46;13.50;;;6.77;;
19183;SDS011;9724;51.194;6.856;2022-12-18T05:39:12;13.87;;;7.00;;
19183;SDS011;9724;51.194;6.856;2022-12-18T05:41:39;16.33;;;7.47;;
19183;SDS011;9724;51.194;6.856;2022-12-18T05:44:06;14.03;;;7.50;;
19183;SDS011;9724;51.194;6.856;2022-12-18T05:46:32;13.47;;;6.90;;
19183;SDS011;9724;51.194;6.856;2022-12-18T05:48:59;14.10;;;7.40;;
19183;SDS011;9724;51.194;6.856;2022-12-18T05:51:26;14.63;;;6.97;;
19183;SDS011;9724;51.194;6.856;2022-12-18T05:53:53;13.77;;;6.53;;
19183;SDS011;9724;51.194;6.856;2022-12-18T05:56:20;14.70;;;7.20;;
19183;SDS011;9724;51.194;6.856;2022-12-18T05:58:50;12.83;;;6.70;;
19183;SDS011;9724;51.194;6.856;2022-12-18T06:01:19;15.87;;;7.47;;
19183;SDS011;9724;51.194;6.856;2022-12-18T06:03:47;16.40;;;7.23;;
19183;SDS011;9724;51.194;6.856;2022-12-18T06:06:13;14.27;;;6.87;;
19183;SDS011;9724;51.194;6.856;2022-12-18T06:08:40;12.40;;;6.63;;
19183;SDS011;9724;51.194;6.856;2022-12-18T06:11:11;14.50;;;6.73;;
19183;SDS011;9724;51.194;6.856;2022-12-18T06:13:38;15.47;;;7.20;;
19183;SDS011;9724;51.194;6.856;2022-12-18T06:16:06;14.10;;;6.30;;
19183;SDS011;9724;51.194;6.856;2022-12-18T06:18:33;13.27;;;7.17;;
19183;SDS011;9724;51.194;6.856;2022-12-18T06:21:03;12.33;;;6.73;;
19183;SDS011;9724;51.194;6.856;2022-12-18T06:23:29;12.17;;;6.13;;
19183;SDS011;9724;51.194;6.856;2022-12-18T06:25:55;15.07;;;7.07;;
19183;SDS011;9724;51.194;6.856;2022-12-18T06:28:22;15.40;;;6.37;;
19183;SDS011;9724;51.194;6.856;2022-12-18T06:30:48;13.97;;;7.17;;
19183;SDS011;9724;51.194;6.856;2022-12-18T06:33:15;13.80;;;6.93;;
19183;SDS011;9724;51.194;6.856;2022-12-18T06:35:42;12.70;;;6.87;;
19183;SDS011;9724;51.194;6.856;2022-12-18T06:38:08;13.70;;;6.70;;
19183;SDS011;9724;51.194;6.856;2022-12-18T06:40:36;13.53;;;6.83;;
19183;SDS011;9724;51.194;6.856;2022-12-18T06:43:02;14.53;;;6.70;;
19183;SDS011;9724;51.194;6.856;2022-12-18T06:45:29;19.17;;;7.40;;
19183;SDS011;9724;51.194;6.856;2022-12-18T06:47:56;12.37;;;6.37;;
19183;SDS011;9724;51.194;6.856;2022-12-18T06:50:24;12.17;;;6.40;;
19183;SDS011;9724;51.194;6.856;2022-12-18T06:52:50;13.33;;;7.10;;
19183;SDS011;9724;51.194;6.856;2022-12-18T06:55:16;12.90;;;6.60;;
19183;SDS011;9724;51.194;6.856;2022-12-18T06:57:43;13.67;;;6.53;;
19183;SDS011;9724;51.194;6.856;2022-12-18T07:00:09;14.43;;;6.80;;
19183;SDS011;9724;51.194;6.856;2022-12-18T07:02:36;13.10;;;7.10;;
19183;SDS011;9724;51.194;6.856;2022-12-18T07:05:02;12.87;;;6.70;;
19183;SDS011;9724;51.194;6.856;2022-12-18T07:07:36;15.97;;;7.10;;
19183;SDS011;9724;51.194;6.856;2022-12-18T07:10:03;16.50;;;7.07;;
19183;SDS011;9724;51.194;6.856;2022-12-18T07:12:30;12.33;;;6.20;;
19183;SDS011;9724;51.194;6.856;2022-12-18T07:14:56;13.97;;;6.63;;
19183;SDS011;9724;51.194;6.856;2022-12-18T07:17:22;14.20;;;6.37;;
19183;SDS011;9724;51.194;6.856;2022-12-18T07:19:48;16.33;;;6.97;;
19183;SDS011;9724;51.194;6.856;2022-12-18T07:22:14;20.67;;;7.30;;
19183;SDS011;9724;51.194;6.856;2022-12-18T07:24:41;14.93;;;6.93;;
19183;SDS011;9724;51.194;6.856;2022-12-18T07:27:07;14.73;;;6.60;;
19183;SDS011;9724;51.194;6.856;2022-12-18T07:29:35;13.23;;;6.80;;
19183;SDS011;9724;51.194;6.856;2022-12-18T07:32:01;16.27;;;7.57;;
19183;SDS011;9724;51.194;6.856;2022-12-18T07:34:28;15.17;;;6.83;;
19183;SDS011;9724;51.194;6.856;2022-12-18T07:36:54;15.70;;;6.40;;
19183;SDS011;9724;51.194;6.856;2022-12-18T07:39:20;12.93;;;5.90;;
19183;SDS011;9724;51.194;6.856;2022-12-18T07:41:47;17.00;;;7.00;;
19183;SDS011;9724;51.194;6.856;2022-12-18T07:44:33;14.03;;;7.00;;
19183;SDS011;9724;51.194;6.856;2022-12-18T07:46:59;14.17;;;7.10;;
19183;SDS011;9724;51.194;6.856;2022-12-18T07:49:26;17.13;;;7.50;;
19183;SDS011;9724;51.194;6.856;2022-12-18T07:51:53;15.23;;;7.07;;
19183;SDS011;9724;51.194;6.856;2022-12-18T07:54:20;17.93;;;7.53;;
19183;SDS011;9724;51.194;6.856;2022-12-18T07:56:47;14.60;;;6.80;;
19183;SDS011;9724;51.194;6.856;2022-12-18T07:59:13;13.43;;;6.73;;
19183;SDS011;9724;51.194;6.856;2022-12-18T08:01:39;16.30;;;7.53;;
19183;SDS011;9724;51.194;6.856;2022-12-18T08:04:05;14.03;;;7.00;;
19183;SDS011;9724;51.194;6.856;2022-12-18T08:06:32;17.60;;;7.70;;
19183;SDS011;9724;51.194;6.856;2022-12-18T08:08:58;17.17;;;7.83;;
19183;SDS011;9724;51.194;6.856;2022-12-18T08:11:26;14.30;;;7.27;;
19183;SDS011;9724;51.194;6.856;2022-12-18T08:13:53;19.83;;;7.60;;
19183;SDS011;9724;51.194;6.856;2022-12-18T08:16:20;15.53;;;7.53;;
19183;SDS011;9724;51.194;6.856;2022-12-18T08:18:47;17.33;;;7.20;;
19183;SDS011;9724;51.194;6.856;2022-12-18T08:21:15;14.60;;;7.17;;
19183;SDS011;9724;51.194;6.856;2022-12-18T08:23:43;17.10;;;7.97;;
19183;SDS011;9724;51.194;6.856;2022-12-18T08:26:11;14.57;;;6.97;;
19183;SDS011;9724;51.194;6.856;2022-12-18T08:28:37;15.63;;;7.60;;
19183;SDS011;9724;51.194;6.856;2022-12-18T08:31:04;17.30;;;7.67;;
19183;SDS011;9724;51.194;6.856;2022-12-18T08:33:31;16.13;;;7.23;;
19183;SDS011;9724;51.194;6.856;2022-12-18T08:35:57;16.50;;;7.83;;
19183;SDS011;9724;51.194;6.856;2022-12-18T08:38:24;17.80;;;7.63;;
19183;SDS011;9724;51.194;6.856;2022-12-18T08:40:54;15.70;;;6.83;;
19183;SDS011;9724;51.194;6.856;2022-12-18T08:43:24;18.70;;;7.87;;
19183;SDS011;9724;51.194;6.856;2022-12-18T08:46:09;17.63;;;7.60;;
19183;SDS011;9724;51.194;6.856;2022-12-18T08:48:36;15.23;;;7.43;;
19183;SDS011;9724;51.194;6.856;2022-12-18T08:51:02;15.77;;;7.63;;
19183;SDS011;9724;51.194;6.856;2022-12-18T08:53:29;15.03;;;7.47;;
19183;SDS011;9724;51.194;6.856;2022-12-18T08:56:01;19.67;;;8.27;;
19183;SDS011;9724;51.194;6.856;2022-12-18T08:58:27;15.20;;;8.33;;
19183;SDS011;9724;51.194;6.856;2022-12-18T09:00:53;14.47;;;7.57;;
19183;SDS011;9724;51.194;6.856;2022-12-18T09:03:20;15.73;;;7.93;;
19183;SDS011;9724;51.194;6.856;2022-12-18T09:05:48;17.77;;;8.33;;
19183;SDS011;9724;51.194;6.856;2022-12-18T09:08:14;20.27;;;7.83;;
19183;SDS011;9724;51.194;6.856;2022-12-18T09:10:41;14.70;;;7.60;;
19183;SDS011;9724;51.194;6.856;2022-12-18T09:13:09;13.87;;;7.70;;
19183;SDS011;9724;51.194;6.856;2022-12-18T09:15:39;15.03;;;7.17;;
19183;SDS011;9724;51.194;6.856;2022-12-18T09:18:06;14.93;;;7.97;;
19183;SDS011;9724;51.194;6.856;2022-12-18T09:20:33;15.93;;;7.70;;
19183;SDS011;9724;51.194;6.856;2022-12-18T09:22:59;16.20;;;8.17;;
19183;SDS011;9724;51.194;6.856;2022-12-18T09:25:25;17.40;;;8.43;;
19183;SDS011;9724;51.194;6.856;2022-12-18T09:27:57;16.37;;;8.67;;
19183;SDS011;9724;51.194;6.856;2022-12-18T09:30:23;16.30;;;8.10;;
19183;SDS011;9724;51.194;6.856;2022-12-18T09:32:50;18.40;;;7.77;;
19183;SDS011;9724;51.194;6.856;2022-12-18T09:35:16;19.97;;;8.37;;
19183;SDS011;9724;51.194;6.856;2022-12-18T09:37:43;16.57;;;7.70;;
19183;SDS011;9724;51.194;6.856;2022-12-18T09:40:12;19.03;;;8.27;;
19183;SDS011;9724;51.194;6.856;2022-12-18T09:42:39;19.67;;;8.37;;
19183;SDS011;9724;51.194;6.856;2022-12-18T09:45:07;16.80;;;7.73;;
19183;SDS011;9724;51.194;6.856;2022-12-18T09:47:34;15.90;;;8.23;;
19183;SDS011;9724;51.194;6.856;2022-12-18T09:50:03;18.97;;;8.23;;
19183;SDS011;9724;51.194;6.856;2022-12-18T09:52:32;16.47;;;7.50;;
19183;SDS011;9724;51.194;6.856;2022-12-18T09:55:03;15.27;;;7.97;;
19183;SDS011;9724;51.194;6.856;2022-12-18T09:57:36;13.73;;;6.43;;
19183;SDS011;9724;51.194;6.856;2022-12-18T10:00:08;18.70;;;8.67;;
19183;SDS011;9724;51.194;6.856;2022-12-18T10:02:41;17.27;;;8.67;;
19183;SDS011;9724;51.194;6.856;2022-12-18T10:05:09;17.63;;;7.57;;
19183;SDS011;9724;51.194;6.856;2022-12-18T10:07:41;17.77;;;7.70;;
19183;SDS011;9724;51.194;6.856;2022-12-18T10:10:14;15.73;;;7.57;;
19183;SDS011;9724;51.194;6.856;2022-12-18T10:12:50;16.70;;;8.17;;
19183;SDS011;9724;51.194;6.856;2022-12-18T10:15:30;15.37;;;7.90;;
19183;SDS011;9724;51.194;6.856;2022-12-18T10:18:01;18.20;;;8.83;;
19183;SDS011;9724;51.194;6.856;2022-12-18T10:20:33;19.60;;;8.40;;
19183;SDS011;9724;51.194;6.856;2022-12-18T10:23:04;15.57;;;8.40;;
19183;SDS011;9724;51.194;6.856;2022-12-18T10:25:50;16.70;;;7.57;;
19183;SDS011;9724;51.194;6.856;2022-12-18T10:28:19;18.20;;;8.60;;
19183;SDS011;9724;51.194;6.856;2022-12-18T10:30:46;17.53;;;8.93;;
19183;SDS011;9724;51.194;6.856;2022-12-18T10:33:16;16.83;;;8.27;;
19183;SDS011;9724;51.194;6.856;2022-12-18T10:35:44;15.47;;;8.40;;
19183;SDS011;9724;51.194;6.856;2022-12-18T10:38:21;14.43;;;7.50;;
19183;SDS011;9724;51.194;6.856;2022-12-18T10:40:50;13.83;;;7.27;;
19183;SDS011;9724;51.194;6.856;2022-12-18T10:43:22;15.77;;;8.10;;
19183;SDS011;9724;51.194;6.856;2022-12-18T10:46:04;16.17;;;7.90;;
19183;SDS011;9724;51.194;6.856;2022-12-18T10:48:39;18.40;;;7.90;;
19183;SDS011;9724;51.194;6.856;2022-12-18T10:51:07;17.93;;;8.03;;
19183;SDS011;9724;51.194;6.856;2022-12-18T10:53:38;17.10;;;7.43;;
19183;SDS011;9724;51.194;6.856;2022-12-18T10:56:07;17.03;;;6.90;;
19183;SDS011;9724;51.194;6.856;2022-12-18T10:58:33;13.80;;;7.30;;
19183;SDS011;9724;51.194;6.856;2022-12-18T11:01:02;16.53;;;8.03;;
19183;SDS011;9724;51.194;6.856;2022-12-18T11:03:33;16.17;;;7.23;;
19183;SDS011;9724;51.194;6.856;2022-12-18T11:06:02;17.83;;;7.50;;
19183;SDS011;9724;51.194;6.856;2022-12-18T11:08:30;14.27;;;7.20;;
19183;SDS011;9724;51.194;6.856;2022-12-18T11:10:56;15.53;;;7.43;;
19183;SDS011;9724;51.194;6.856;2022-12-18T11:13:23;17.93;;;8.47;;
19183;SDS011;9724;51.194;6.856;2022-12-18T11:15:54;20.90;;;7.80;;
19183;SDS011;9724;51.194;6.856;2022-12-18T11:18:22;19.20;;;7.63;;
19183;SDS011;9724;51.194;6.856;2022-12-18T11:20:52;16.37;;;8.23;;
19183;SDS011;9724;51.194;6.856;2022-12-18T11:23:24;20.23;;;6.97;;
19183;SDS011;9724;51.194;6.856;2022-12-18T11:25:51;18.93;;;7.57;;
19183;SDS011;9724;51.194;6.856;2022-12-18T11:28:27;15.53;;;7.80;;
19183;SDS011;9724;51.194;6.856;2022-12-18T11:31:08;16.10;;;7.60;;
19183;SDS011;9724;51.194;6.856;2022-12-18T11:33:39;13.80;;;6.53;;
19183;SDS011;9724;51.194;6.856;2022-12-18T11:36:28;13.40;;;7.13;;
19183;SDS011;9724;51.194;6.856;2022-12-18T11:38:57;15.13;;;7.30;;
19183;SDS011;9724;51.194;6.856;2022-12-18T11:41:25;13.53;;;7.30;;
19183;SDS011;9724;51.194;6.856;2022-12-18T11:44:10;23.47;;;8.23;;
19183;SDS011;9724;51.194;6.856;2022-12-18T11:46:39;16.67;;;7.80;;
19183;SDS011;9724;51.194;6.856;2022-12-18T11:49:12;18.43;;;7.30;;
19183;SDS011;9724;51.194;6.856;2022-12-18T11:51:51;15.33;;;8.50;;
19183;SDS011;9724;51.194;6.856;2022-12-18T11:54:19;17.43;;;7.80;;
19183;SDS011;9724;51.194;6.856;2022-12-18T11:56:47;14.50;;;7.83;;
19183;SDS011;9724;51.194;6.856;2022-12-18T11:59:17;22.43;;;7.93;;
19183;SDS011;9724;51.194;6.856;2022-12-18T12:01:48;15.57;;;7.63;;
19183;SDS011;9724;51.194;6.856;2022-12-18T12:07:09;23.53;;;7.73;;
19183;SDS011;9724;51.194;6.856;2022-12-18T12:09:44;17.97;;;8.53;;
19183;SDS011;9724;51.194;6.856;2022-12-18T12:12:20;15.30;;;8.10;;
19183;SDS011;9724;51.194;6.856;2022-12-18T12:14:55;20.23;;;9.57;;
19183;SDS011;9724;51.194;6.856;2022-12-18T12:17:27;19.63;;;8.03;;
19183;SDS011;9724;51.194;6.856;2022-12-18T12:20:02;16.67;;;6.77;;
19183;SDS011;9724;51.194;6.856;2022-12-18T12:22:37;20.13;;;8.70;;
19183;SDS011;9724;51.194;6.856;2022-12-18T12:25:12;22.67;;;9.07;;
19183;SDS011;9724;51.194;6.856;2022-12-18T12:27:47;17.40;;;6.53;;
19183;SDS011;9724;51.194;6.856;2022-12-18T12:30:19;26.23;;;9.10;;
19183;SDS011;9724;51.194;6.856;2022-12-18T12:32:54;18.27;;;7.63;;
19183;SDS011;9724;51.194;6.856;2022-12-18T12:35:30;16.87;;;7.60;;
19183;SDS011;9724;51.194;6.856;2022-12-18T12:38:04;22.17;;;9.43;;
19183;SDS011;9724;51.194;6.856;2022-12-18T12:40:34;18.73;;;9.30;;
19183;SDS011;9724;51.194;6.856;2022-12-18T12:43:22;17.40;;;8.00;;
19183;SDS011;9724;51.194;6.856;2022-12-18T12:45:53;19.13;;;9.20;;
19183;SDS011;9724;51.194;6.856;2022-12-18T12:48:25;21.87;;;9.60;;
19183;SDS011;9724;51.194;6.856;2022-12-18T12:50:57;18.17;;;8.43;;
19183;SDS011;9724;51.194;6.856;2022-12-18T12:53:26;23.27;;;9.43;;
19183;SDS011;9724;51.194;6.856;2022-12-18T12:55:56;21.07;;;9.73;;
19183;SDS011;9724;51.194;6.856;2022-12-18T12:58:26;18.73;;;9.13;;
19183;SDS011;9724;51.194;6.856;2022-12-18T13:01:01;21.77;;;10.47;;
19183;SDS011;9724;51.194;6.856;2022-12-18T13:03:35;24.57;;;10.50;;
19183;SDS011;9724;51.194;6.856;2022-12-18T13:06:10;22.13;;;10.53;;
19183;SDS011;9724;51.194;6.856;2022-12-18T13:08:51;25.83;;;11.03;;
19183;SDS011;9724;51.194;6.856;2022-12-18T13:11:28;24.43;;;10.17;;
19183;SDS011;9724;51.194;6.856;2022-12-18T13:14:35;23.97;;;10.83;;
19183;SDS011;9724;51.194;6.856;2022-12-18T13:20:08;23.20;;;10.90;;
19183;SDS011;9724;51.194;6.856;2022-12-18T13:22:36;22.27;;;9.17;;
19183;SDS011;9724;51.194;6.856;2022-12-18T13:27:57;26.67;;;10.70;;
19183;SDS011;9724;51.194;6.856;2022-12-18T13:30:41;21.30;;;11.00;;
19183;SDS011;9724;51.194;6.856;2022-12-18T13:33:37;24.47;;;11.33;;
19183;SDS011;9724;51.194;6.856;2022-12-18T13:36:29;16.53;;;7.07;;
19183;SDS011;9724;51.194;6.856;2022-12-18T13:39:10;22.60;;;10.67;;
19183;SDS011;9724;51.194;6.856;2022-12-18T13:48:18;23.70;;;9.80;;
19183;SDS011;9724;51.194;6.856;2022-12-18T13:50:59;26.73;;;11.27;;
19183;SDS011;9724;51.194;6.856;2022-12-18T13:53:29;23.93;;;11.07;;
19183;SDS011;9724;51.194;6.856;2022-12-18T13:55:58;19.27;;;8.97;;
19183;SDS011;9724;51.194;6.856;2022-12-18T13:58:25;26.43;;;11.40;;
19183;SDS011;9724;51.194;6.856;2022-12-18T14:00:52;21.63;;;10.33;;
19183;SDS011;9724;51.194;6.856;2022-12-18T14:03:20;28.77;;;12.33;;
19183;SDS011;9724;51.194;6.856;2022-12-18T14:05:52;28.30;;;12.00;;
19183;SDS011;9724;51.194;6.856;2022-12-18T14:08:20;28.93;;;11.30;;
19183;SDS011;9724;51.194;6.856;2022-12-18T14:10:48;25.70;;;11.63;;
19183;SDS011;9724;51.194;6.856;2022-12-18T14:13:17;24.20;;;9.33;;
19183;SDS011;9724;51.194;6.856;2022-12-18T14:15:47;23.63;;;11.33;;
19183;SDS011;9724;51.194;6.856;2022-12-18T14:18:18;24.30;;;10.83;;
19183;SDS011;9724;51.194;6.856;2022-12-18T14:20:46;26.93;;;11.27;;
19183;SDS011;9724;51.194;6.856;2022-12-18T14:23:31;24.90;;;11.30;;
19183;SDS011;9724;51.194;6.856;2022-12-18T14:25:59;25.80;;;11.20;;
19183;SDS011;9724;51.194;6.856;2022-12-18T14:28:31;27.50;;;10.30;;
19183;SDS011;9724;51.194;6.856;2022-12-18T14:30:57;26.37;;;10.87;;
19183;SDS011;9724;51.194;6.856;2022-12-18T14:33:24;22.37;;;9.10;;
19183;SDS011;9724;51.194;6.856;2022-12-18T14:35:54;23.67;;;10.03;;
19183;SDS011;9724;51.194;6.856;2022-12-18T14:38:26;28.33;;;12.20;;
19183;SDS011;9724;51.194;6.856;2022-12-18T14:40:59;25.20;;;12.03;;
19183;SDS011;9724;51.194;6.856;2022-12-18T14:43:27;25.33;;;10.33;;
19183;SDS011;9724;51.194;6.856;2022-12-18T14:45:57;22.93;;;9.50;;
19183;SDS011;9724;51.194;6.856;2022-12-18T14:48:30;24.80;;;9.33;;
19183;SDS011;9724;51.194;6.856;2022-12-18T14:51:04;25.40;;;12.43;;
19183;SDS011;9724;51.194;6.856;2022-12-18T14:53:34;21.97;;;10.13;;
19183;SDS011;9724;51.194;6.856;2022-12-18T14:56:02;25.57;;;11.80;;
19183;SDS011;9724;51.194;6.856;2022-12-18T14:58:29;28.37;;;12.10;;
19183;SDS011;9724;51.194;6.856;2022-12-18T15:00:55;28.87;;;12.40;;
19183;SDS011;9724;51.194;6.856;2022-12-18T15:03:22;26.80;;;11.93;;
19183;SDS011;9724;51.194;6.856;2022-12-18T15:05:48;29.77;;;12.57;;
19183;SDS011;9724;51.194;6.856;2022-12-18T15:08:26;25.13;;;12.27;;
19183;SDS011;9724;51.194;6.856;2022-12-18T15:10:55;31.67;;;12.33;;
19183;SDS011;9724;51.194;6.856;2022-12-18T15:13:22;28.07;;;12.33;;
19183;SDS011;9724;51.194;6.856;2022-12-18T15:15:50;27.03;;;12.07;;